sensor_id;sensor_type;location;lat;lon;timestamp;temperature;humidity
36990;DHT22;22898;52.102;5.776;2022-08-21T00:02:21;21.90;81.60
36990;DHT22;22898;52.102;5.776;2022-08-21T00:04:47;21.90;81.70
36990;DHT22;22898;52.102;5.776;2022-08-21T00:07:13;22.00;81.40
36990;DHT22;22898;52.102;5.776;2022-08-21T00:09:39;22.00;80.80
36990;DHT22;22898;52.102;5.776;2022-08-21T00:12:06;22.00;80.70
36990;DHT22;22898;52.102;5.776;2022-08-21T00:14:32;22.00;80.50
36990;DHT22;22898;52.102;5.776;2022-08-21T00:16:58;22.00;80.50
36990;DHT22;22898;52.102;5.776;2022-08-21T00:19:24;22.00;80.50
36990;DHT22;22898;52.102;5.776;2022-08-21T00:21:53;22.00;80.50
36990;DHT22;22898;52.102;5.776;2022-08-21T00:24:20;21.90;80.70
36990;DHT22;22898;52.102;5.776;2022-08-21T00:26:46;21.90;80.90
36990;DHT22;22898;52.102;5.776;2022-08-21T00:29:13;21.90;81.00
36990;DHT22;22898;52.102;5.776;2022-08-21T00:31:39;21.90;81.00
36990;DHT22;22898;52.102;5.776;2022-08-21T00:34:05;21.90;80.70
36990;DHT22;22898;52.102;5.776;2022-08-21T00:36:32;21.90;80.70
36990;DHT22;22898;52.102;5.776;2022-08-21T00:38:58;21.90;80.60
36990;DHT22;22898;52.102;5.776;2022-08-21T00:41:24;21.90;80.50
36990;DHT22;22898;52.102;5.776;2022-08-21T00:43:50;21.90;80.40
36990;DHT22;22898;52.102;5.776;2022-08-21T00:46:17;21.90;80.40
36990;DHT22;22898;52.102;5.776;2022-08-21T00:48:43;21.80;80.70
36990;DHT22;22898;52.102;5.776;2022-08-21T00:51:12;21.90;80.50
36990;DHT22;22898;52.102;5.776;2022-08-21T00:53:42;21.90;80.40
36990;DHT22;22898;52.102;5.776;2022-08-21T00:56:09;21.80;80.70
36990;DHT22;22898;52.102;5.776;2022-08-21T00:58:37;21.80;80.50
36990;DHT22;22898;52.102;5.776;2022-08-21T01:01:05;21.90;80.60
36990;DHT22;22898;52.102;5.776;2022-08-21T01:03:32;21.70;80.70
36990;DHT22;22898;52.102;5.776;2022-08-21T01:05:58;21.70;80.70
36990;DHT22;22898;52.102;5.776;2022-08-21T01:08:24;21.70;80.60
36990;DHT22;22898;52.102;5.776;2022-08-21T01:10:52;21.70;80.60
36990;DHT22;22898;52.102;5.776;2022-08-21T01:13:18;21.70;80.60
36990;DHT22;22898;52.102;5.776;2022-08-21T01:15:46;21.70;80.40
36990;DHT22;22898;52.102;5.776;2022-08-21T01:18:13;21.60;80.60
36990;DHT22;22898;52.102;5.776;2022-08-21T01:20:43;21.60;80.30
36990;DHT22;22898;52.102;5.776;2022-08-21T01:23:09;21.60;80.40
36990;DHT22;22898;52.102;5.776;2022-08-21T01:25:35;21.50;80.80
36990;DHT22;22898;52.102;5.776;2022-08-21T01:28:06;21.50;81.00
36990;DHT22;22898;52.102;5.776;2022-08-21T01:30:35;21.50;80.50
36990;DHT22;22898;52.102;5.776;2022-08-21T01:33:02;21.50;80.90
36990;DHT22;22898;52.102;5.776;2022-08-21T01:35:28;21.50;80.80
36990;DHT22;22898;52.102;5.776;2022-08-21T01:37:54;21.50;80.70
36990;DHT22;22898;52.102;5.776;2022-08-21T01:40:19;21.50;80.80
36990;DHT22;22898;52.102;5.776;2022-08-21T01:42:46;21.50;81.10
36990;DHT22;22898;52.102;5.776;2022-08-21T01:45:13;21.40;80.90
36990;DHT22;22898;52.102;5.776;2022-08-21T01:47:39;21.40;81.00
36990;DHT22;22898;52.102;5.776;2022-08-21T01:50:09;21.30;81.10
36990;DHT22;22898;52.102;5.776;2022-08-21T01:52:35;21.30;80.90
36990;DHT22;22898;52.102;5.776;2022-08-21T01:55:01;21.30;81.10
36990;DHT22;22898;52.102;5.776;2022-08-21T01:57:27;21.30;80.90
36990;DHT22;22898;52.102;5.776;2022-08-21T01:59:53;21.30;80.70
36990;DHT22;22898;52.102;5.776;2022-08-21T02:02:18;21.20;80.90
36990;DHT22;22898;52.102;5.776;2022-08-21T02:04:44;21.20;81.00
36990;DHT22;22898;52.102;5.776;2022-08-21T02:07:10;21.10;81.40
36990;DHT22;22898;52.102;5.776;2022-08-21T02:09:35;21.10;81.60
36990;DHT22;22898;52.102;5.776;2022-08-21T02:12:01;21.10;81.90
36990;DHT22;22898;52.102;5.776;2022-08-21T02:14:26;21.00;82.00
36990;DHT22;22898;52.102;5.776;2022-08-21T02:16:52;21.00;82.30
36990;DHT22;22898;52.102;5.776;2022-08-21T02:19:18;21.00;82.30
36990;DHT22;22898;52.102;5.776;2022-08-21T02:21:44;21.00;82.10
36990;DHT22;22898;52.102;5.776;2022-08-21T02:24:10;21.00;82.60
36990;DHT22;22898;52.102;5.776;2022-08-21T02:26:36;21.00;81.90
36990;DHT22;22898;52.102;5.776;2022-08-21T02:29:04;20.90;81.80
36990;DHT22;22898;52.102;5.776;2022-08-21T02:31:30;20.90;81.70
36990;DHT22;22898;52.102;5.776;2022-08-21T02:33:56;20.90;81.70
36990;DHT22;22898;52.102;5.776;2022-08-21T02:36:22;20.90;82.20
36990;DHT22;22898;52.102;5.776;2022-08-21T02:38:47;20.90;82.40
36990;DHT22;22898;52.102;5.776;2022-08-21T02:41:17;20.90;81.90
36990;DHT22;22898;52.102;5.776;2022-08-21T02:43:43;20.80;82.00
36990;DHT22;22898;52.102;5.776;2022-08-21T02:46:10;20.80;81.90
36990;DHT22;22898;52.102;5.776;2022-08-21T02:48:38;20.90;82.00
36990;DHT22;22898;52.102;5.776;2022-08-21T02:51:12;20.80;82.00
36990;DHT22;22898;52.102;5.776;2022-08-21T02:53:39;20.80;82.00
36990;DHT22;22898;52.102;5.776;2022-08-21T02:56:07;20.70;82.00
36990;DHT22;22898;52.102;5.776;2022-08-21T02:58:39;20.70;82.50
36990;DHT22;22898;52.102;5.776;2022-08-21T03:01:05;20.60;82.50
36990;DHT22;22898;52.102;5.776;2022-08-21T03:03:35;20.70;82.60
36990;DHT22;22898;52.102;5.776;2022-08-21T03:06:01;20.70;82.70
36990;DHT22;22898;52.102;5.776;2022-08-21T03:08:26;20.60;82.30
36990;DHT22;22898;52.102;5.776;2022-08-21T03:10:52;20.60;83.10
36990;DHT22;22898;52.102;5.776;2022-08-21T03:13:19;20.60;83.20
36990;DHT22;22898;52.102;5.776;2022-08-21T03:15:46;20.60;83.30
36990;DHT22;22898;52.102;5.776;2022-08-21T03:18:12;20.70;83.30
36990;DHT22;22898;52.102;5.776;2022-08-21T03:20:39;20.70;83.00
36990;DHT22;22898;52.102;5.776;2022-08-21T03:23:06;20.70;83.50
36990;DHT22;22898;52.102;5.776;2022-08-21T03:25:32;20.70;83.50
36990;DHT22;22898;52.102;5.776;2022-08-21T03:27:59;20.70;83.50
36990;DHT22;22898;52.102;5.776;2022-08-21T03:30:24;20.80;83.30
36990;DHT22;22898;52.102;5.776;2022-08-21T03:32:50;20.80;83.50
36990;DHT22;22898;52.102;5.776;2022-08-21T03:35:17;20.70;83.50
36990;DHT22;22898;52.102;5.776;2022-08-21T03:37:43;20.70;83.50
36990;DHT22;22898;52.102;5.776;2022-08-21T03:40:10;20.70;83.40
36990;DHT22;22898;52.102;5.776;2022-08-21T03:42:36;20.70;83.70
36990;DHT22;22898;52.102;5.776;2022-08-21T03:45:03;20.70;83.40
36990;DHT22;22898;52.102;5.776;2022-08-21T03:47:29;20.60;83.50
36990;DHT22;22898;52.102;5.776;2022-08-21T03:49:55;20.60;83.80
36990;DHT22;22898;52.102;5.776;2022-08-21T03:52:21;20.50;84.50
36990;DHT22;22898;52.102;5.776;2022-08-21T03:54:46;20.50;83.30
36990;DHT22;22898;52.102;5.776;2022-08-21T03:57:12;20.50;83.90
36990;DHT22;22898;52.102;5.776;2022-08-21T03:59:38;20.50;84.10
36990;DHT22;22898;52.102;5.776;2022-08-21T04:02:06;20.60;84.20
36990;DHT22;22898;52.102;5.776;2022-08-21T04:04:32;20.60;83.90
36990;DHT22;22898;52.102;5.776;2022-08-21T04:06:58;20.60;83.70
36990;DHT22;22898;52.102;5.776;2022-08-21T04:09:24;20.70;83.50
36990;DHT22;22898;52.102;5.776;2022-08-21T04:11:50;20.60;83.60
36990;DHT22;22898;52.102;5.776;2022-08-21T04:14:16;20.50;83.30
36990;DHT22;22898;52.102;5.776;2022-08-21T04:16:43;20.50;83.30
36990;DHT22;22898;52.102;5.776;2022-08-21T04:19:09;20.50;83.30
36990;DHT22;22898;52.102;5.776;2022-08-21T04:21:36;20.60;83.10
36990;DHT22;22898;52.102;5.776;2022-08-21T04:24:03;20.60;83.10
36990;DHT22;22898;52.102;5.776;2022-08-21T04:26:29;20.60;83.50
36990;DHT22;22898;52.102;5.776;2022-08-21T04:28:57;20.60;83.40
36990;DHT22;22898;52.102;5.776;2022-08-21T04:31:23;20.50;83.20
36990;DHT22;22898;52.102;5.776;2022-08-21T04:33:49;20.50;83.30
36990;DHT22;22898;52.102;5.776;2022-08-21T04:36:14;20.50;83.30
36990;DHT22;22898;52.102;5.776;2022-08-21T04:38:40;20.40;83.50
36990;DHT22;22898;52.102;5.776;2022-08-21T04:41:06;20.40;83.60
36990;DHT22;22898;52.102;5.776;2022-08-21T04:43:31;20.40;82.50
36990;DHT22;22898;52.102;5.776;2022-08-21T04:45:57;20.40;82.30
36990;DHT22;22898;52.102;5.776;2022-08-21T04:48:23;20.30;82.40
36990;DHT22;22898;52.102;5.776;2022-08-21T04:51:00;20.30;82.70
36990;DHT22;22898;52.102;5.776;2022-08-21T04:53:36;20.40;82.40
36990;DHT22;22898;52.102;5.776;2022-08-21T04:56:08;20.40;82.30
36990;DHT22;22898;52.102;5.776;2022-08-21T04:58:36;20.50;82.50
36990;DHT22;22898;52.102;5.776;2022-08-21T05:01:04;20.50;82.70
36990;DHT22;22898;52.102;5.776;2022-08-21T05:03:31;20.40;83.10
36990;DHT22;22898;52.102;5.776;2022-08-21T05:05:58;20.40;83.30
36990;DHT22;22898;52.102;5.776;2022-08-21T05:08:25;20.40;83.30
36990;DHT22;22898;52.102;5.776;2022-08-21T05:10:52;20.40;83.60
36990;DHT22;22898;52.102;5.776;2022-08-21T05:13:18;20.50;83.60
36990;DHT22;22898;52.102;5.776;2022-08-21T05:15:43;20.50;83.60
36990;DHT22;22898;52.102;5.776;2022-08-21T05:18:09;20.50;83.40
36990;DHT22;22898;52.102;5.776;2022-08-21T05:20:35;20.60;83.30
36990;DHT22;22898;52.102;5.776;2022-08-21T05:23:01;20.60;83.30
36990;DHT22;22898;52.102;5.776;2022-08-21T05:25:32;20.60;83.60
36990;DHT22;22898;52.102;5.776;2022-08-21T05:27:58;20.60;83.60
36990;DHT22;22898;52.102;5.776;2022-08-21T05:30:23;20.70;83.60
36990;DHT22;22898;52.102;5.776;2022-08-21T05:32:49;20.70;83.40
36990;DHT22;22898;52.102;5.776;2022-08-21T05:35:15;20.70;83.70
36990;DHT22;22898;52.102;5.776;2022-08-21T05:37:40;20.80;84.00
36990;DHT22;22898;52.102;5.776;2022-08-21T05:40:07;20.90;83.90
36990;DHT22;22898;52.102;5.776;2022-08-21T05:42:33;20.90;83.50
36990;DHT22;22898;52.102;5.776;2022-08-21T05:44:59;20.90;83.60
36990;DHT22;22898;52.102;5.776;2022-08-21T05:47:24;20.90;84.10
36990;DHT22;22898;52.102;5.776;2022-08-21T05:49:50;21.00;84.30
36990;DHT22;22898;52.102;5.776;2022-08-21T05:52:20;21.10;84.50
36990;DHT22;22898;52.102;5.776;2022-08-21T05:54:49;21.20;84.50
36990;DHT22;22898;52.102;5.776;2022-08-21T05:57:15;21.30;84.80
36990;DHT22;22898;52.102;5.776;2022-08-21T05:59:41;21.40;85.00
36990;DHT22;22898;52.102;5.776;2022-08-21T06:02:07;21.50;85.20
36990;DHT22;22898;52.102;5.776;2022-08-21T06:04:37;21.60;85.30
36990;DHT22;22898;52.102;5.776;2022-08-21T06:07:03;21.80;85.20
36990;DHT22;22898;52.102;5.776;2022-08-21T06:09:29;21.90;85.00
36990;DHT22;22898;52.102;5.776;2022-08-21T06:11:54;21.90;85.20
36990;DHT22;22898;52.102;5.776;2022-08-21T06:14:20;22.10;85.20
36990;DHT22;22898;52.102;5.776;2022-08-21T06:16:45;22.00;86.10
36990;DHT22;22898;52.102;5.776;2022-08-21T06:19:12;22.10;85.40
36990;DHT22;22898;52.102;5.776;2022-08-21T06:21:37;22.20;85.30
36990;DHT22;22898;52.102;5.776;2022-08-21T06:24:04;22.20;85.50
36990;DHT22;22898;52.102;5.776;2022-08-21T06:26:30;22.10;86.30
36990;DHT22;22898;52.102;5.776;2022-08-21T06:28:56;22.20;86.20
36990;DHT22;22898;52.102;5.776;2022-08-21T06:31:24;22.30;86.20
36990;DHT22;22898;52.102;5.776;2022-08-21T06:33:50;22.50;86.00
36990;DHT22;22898;52.102;5.776;2022-08-21T06:36:16;22.60;85.80
36990;DHT22;22898;52.102;5.776;2022-08-21T06:38:42;22.70;85.60
36990;DHT22;22898;52.102;5.776;2022-08-21T06:41:08;22.70;85.90
36990;DHT22;22898;52.102;5.776;2022-08-21T06:43:33;22.80;86.30
36990;DHT22;22898;52.102;5.776;2022-08-21T06:45:59;22.80;85.80
36990;DHT22;22898;52.102;5.776;2022-08-21T06:48:25;22.70;86.80
36990;DHT22;22898;52.102;5.776;2022-08-21T06:50:51;22.40;88.30
36990;DHT22;22898;52.102;5.776;2022-08-21T06:53:19;22.30;89.20
36990;DHT22;22898;52.102;5.776;2022-08-21T06:55:46;22.60;88.50
36990;DHT22;22898;52.102;5.776;2022-08-21T06:58:12;22.70;88.50
36990;DHT22;22898;52.102;5.776;2022-08-21T07:00:40;22.70;88.20
36990;DHT22;22898;52.102;5.776;2022-08-21T07:03:06;22.30;90.00
36990;DHT22;22898;52.102;5.776;2022-08-21T07:05:32;22.40;90.20
36990;DHT22;22898;52.102;5.776;2022-08-21T07:07:58;22.10;90.60
36990;DHT22;22898;52.102;5.776;2022-08-21T07:10:25;22.10;90.70
36990;DHT22;22898;52.102;5.776;2022-08-21T07:12:52;22.50;90.30
36990;DHT22;22898;52.102;5.776;2022-08-21T07:15:19;22.80;89.90
36990;DHT22;22898;52.102;5.776;2022-08-21T07:17:45;22.30;90.80
36990;DHT22;22898;52.102;5.776;2022-08-21T07:20:10;21.80;91.70
36990;DHT22;22898;52.102;5.776;2022-08-21T07:22:37;21.80;91.80
36990;DHT22;22898;52.102;5.776;2022-08-21T07:25:05;21.80;91.80
36990;DHT22;22898;52.102;5.776;2022-08-21T07:27:31;22.10;91.50
36990;DHT22;22898;52.102;5.776;2022-08-21T07:29:57;22.10;91.50
36990;DHT22;22898;52.102;5.776;2022-08-21T07:32:23;22.70;90.70
36990;DHT22;22898;52.102;5.776;2022-08-21T07:34:49;23.20;90.00
36990;DHT22;22898;52.102;5.776;2022-08-21T07:37:15;23.10;90.20
36990;DHT22;22898;52.102;5.776;2022-08-21T07:39:40;23.20;90.10
36990;DHT22;22898;52.102;5.776;2022-08-21T07:42:06;22.90;90.40
36990;DHT22;22898;52.102;5.776;2022-08-21T07:44:32;22.80;91.10
36990;DHT22;22898;52.102;5.776;2022-08-21T07:47:00;22.80;91.20
36990;DHT22;22898;52.102;5.776;2022-08-21T07:49:25;22.90;91.10
36990;DHT22;22898;52.102;5.776;2022-08-21T07:51:51;23.30;90.70
36990;DHT22;22898;52.102;5.776;2022-08-21T07:54:17;23.60;90.30
36990;DHT22;22898;52.102;5.776;2022-08-21T07:56:42;23.90;90.00
36990;DHT22;22898;52.102;5.776;2022-08-21T07:59:08;24.10;90.00
36990;DHT22;22898;52.102;5.776;2022-08-21T08:01:34;24.00;89.90
36990;DHT22;22898;52.102;5.776;2022-08-21T08:03:59;24.10;89.80
36990;DHT22;22898;52.102;5.776;2022-08-21T08:06:25;24.10;90.00
36990;DHT22;22898;52.102;5.776;2022-08-21T08:08:51;23.70;90.50
36990;DHT22;22898;52.102;5.776;2022-08-21T08:11:17;23.10;91.70
36990;DHT22;22898;52.102;5.776;2022-08-21T08:13:47;23.30;91.40
36990;DHT22;22898;52.102;5.776;2022-08-21T08:16:13;23.20;91.30
36990;DHT22;22898;52.102;5.776;2022-08-21T08:18:39;23.40;91.40
36990;DHT22;22898;52.102;5.776;2022-08-21T08:21:05;23.90;90.70
36990;DHT22;22898;52.102;5.776;2022-08-21T08:23:31;24.20;90.10
36990;DHT22;22898;52.102;5.776;2022-08-21T08:25:58;24.50;89.40
36990;DHT22;22898;52.102;5.776;2022-08-21T08:28:24;24.50;88.90
36990;DHT22;22898;52.102;5.776;2022-08-21T08:30:50;24.70;87.70
36990;DHT22;22898;52.102;5.776;2022-08-21T08:33:16;24.70;87.30
36990;DHT22;22898;52.102;5.776;2022-08-21T08:35:45;25.00;86.90
36990;DHT22;22898;52.102;5.776;2022-08-21T08:38:11;25.30;84.70
36990;DHT22;22898;52.102;5.776;2022-08-21T08:40:43;25.10;85.50
36990;DHT22;22898;52.102;5.776;2022-08-21T08:43:13;24.70;86.30
36990;DHT22;22898;52.102;5.776;2022-08-21T08:45:42;23.80;89.40
36990;DHT22;22898;52.102;5.776;2022-08-21T08:48:13;23.70;88.90
36990;DHT22;22898;52.102;5.776;2022-08-21T08:50:53;24.00;88.50
36990;DHT22;22898;52.102;5.776;2022-08-21T08:53:30;24.10;88.00
36990;DHT22;22898;52.102;5.776;2022-08-21T08:55:57;24.60;85.80
36990;DHT22;22898;52.102;5.776;2022-08-21T08:58:26;24.40;87.00
36990;DHT22;22898;52.102;5.776;2022-08-21T09:00:54;24.40;87.00
36990;DHT22;22898;52.102;5.776;2022-08-21T09:03:22;24.40;86.40
36990;DHT22;22898;52.102;5.776;2022-08-21T09:08:46;24.10;87.30
36990;DHT22;22898;52.102;5.776;2022-08-21T09:14:47;24.50;86.80
36990;DHT22;22898;52.102;5.776;2022-08-21T09:17:19;24.70;84.80
36990;DHT22;22898;52.102;5.776;2022-08-21T09:20:09;24.50;85.70
36990;DHT22;22898;52.102;5.776;2022-08-21T09:22:59;25.20;84.40
36990;DHT22;22898;52.102;5.776;2022-08-21T09:25:34;25.90;81.60
36990;DHT22;22898;52.102;5.776;2022-08-21T09:28:08;26.30;81.10
36990;DHT22;22898;52.102;5.776;2022-08-21T09:30:34;25.90;81.10
36990;DHT22;22898;52.102;5.776;2022-08-21T09:33:00;25.60;82.80
36990;DHT22;22898;52.102;5.776;2022-08-21T09:35:25;25.80;80.10
36990;DHT22;22898;52.102;5.776;2022-08-21T09:43:17;26.20;79.00
36990;DHT22;22898;52.102;5.776;2022-08-21T09:45:44;25.90;79.20
36990;DHT22;22898;52.102;5.776;2022-08-21T09:48:22;26.00;80.10
36990;DHT22;22898;52.102;5.776;2022-08-21T09:50:49;26.30;80.20
36990;DHT22;22898;52.102;5.776;2022-08-21T09:55:57;27.00;77.00
36990;DHT22;22898;52.102;5.776;2022-08-21T09:58:46;26.80;77.70
36990;DHT22;22898;52.102;5.776;2022-08-21T10:01:15;27.10;76.60
36990;DHT22;22898;52.102;5.776;2022-08-21T10:03:42;26.50;79.00
36990;DHT22;22898;52.102;5.776;2022-08-21T10:06:09;26.50;78.20
36990;DHT22;22898;52.102;5.776;2022-08-21T10:08:40;26.40;78.20
36990;DHT22;22898;52.102;5.776;2022-08-21T10:20:00;26.60;77.60
36990;DHT22;22898;52.102;5.776;2022-08-21T10:25:33;27.50;72.30
36990;DHT22;22898;52.102;5.776;2022-08-21T10:34:10;26.20;76.20
36990;DHT22;22898;52.102;5.776;2022-08-21T10:36:44;25.90;76.80
36990;DHT22;22898;52.102;5.776;2022-08-21T10:39:26;26.30;76.40
36990;DHT22;22898;52.102;5.776;2022-08-21T10:47:53;27.40;72.40
36990;DHT22;22898;52.102;5.776;2022-08-21T10:50:44;27.50;71.70
36990;DHT22;22898;52.102;5.776;2022-08-21T10:53:16;28.30;70.00
36990;DHT22;22898;52.102;5.776;2022-08-21T10:55:59;28.30;70.90
36990;DHT22;22898;52.102;5.776;2022-08-21T10:58:34;28.60;70.00
36990;DHT22;22898;52.102;5.776;2022-08-21T11:01:11;28.20;71.90
36990;DHT22;22898;52.102;5.776;2022-08-21T11:03:44;28.40;71.30
36990;DHT22;22898;52.102;5.776;2022-08-21T11:06:13;28.40;71.00
36990;DHT22;22898;52.102;5.776;2022-08-21T11:08:45;28.20;71.40
36990;DHT22;22898;52.102;5.776;2022-08-21T11:13:54;29.30;67.60
36990;DHT22;22898;52.102;5.776;2022-08-21T11:16:33;29.30;66.60
36990;DHT22;22898;52.102;5.776;2022-08-21T11:19:07;29.30;68.00
36990;DHT22;22898;52.102;5.776;2022-08-21T11:21:50;29.10;66.10
36990;DHT22;22898;52.102;5.776;2022-08-21T11:29:37;29.00;66.20
36990;DHT22;22898;52.102;5.776;2022-08-21T11:38:15;28.90;67.00
36990;DHT22;22898;52.102;5.776;2022-08-21T11:41:08;28.60;66.60
36990;DHT22;22898;52.102;5.776;2022-08-21T11:43:41;28.60;66.10
36990;DHT22;22898;52.102;5.776;2022-08-21T11:51:44;28.50;65.30
36990;DHT22;22898;52.102;5.776;2022-08-21T12:02:24;29.90;63.50
36990;DHT22;22898;52.102;5.776;2022-08-21T12:04:59;29.80;64.10
36990;DHT22;22898;52.102;5.776;2022-08-21T12:07:44;29.40;64.50
36990;DHT22;22898;52.102;5.776;2022-08-21T12:10:14;28.70;66.40
36990;DHT22;22898;52.102;5.776;2022-08-21T12:12:42;28.70;65.80
36990;DHT22;22898;52.102;5.776;2022-08-21T12:15:26;29.00;65.20
36990;DHT22;22898;52.102;5.776;2022-08-21T12:18:01;29.40;64.70
36990;DHT22;22898;52.102;5.776;2022-08-21T12:20:42;29.50;64.80
36990;DHT22;22898;52.102;5.776;2022-08-21T12:25:39;28.30;66.50
36990;DHT22;22898;52.102;5.776;2022-08-21T12:28:15;27.80;68.50
36990;DHT22;22898;52.102;5.776;2022-08-21T12:30:44;28.20;67.00
36990;DHT22;22898;52.102;5.776;2022-08-21T12:38:32;28.50;67.30
36990;DHT22;22898;52.102;5.776;2022-08-21T12:41:06;28.60;66.30
36990;DHT22;22898;52.102;5.776;2022-08-21T12:43:36;28.90;64.70
36990;DHT22;22898;52.102;5.776;2022-08-21T12:46:02;28.70;64.70
36990;DHT22;22898;52.102;5.776;2022-08-21T12:48:41;28.80;64.50
36990;DHT22;22898;52.102;5.776;2022-08-21T12:51:12;29.50;63.00
36990;DHT22;22898;52.102;5.776;2022-08-21T12:53:48;29.90;61.90
36990;DHT22;22898;52.102;5.776;2022-08-21T12:56:17;30.20;61.10
36990;DHT22;22898;52.102;5.776;2022-08-21T12:58:52;29.00;63.40
36990;DHT22;22898;52.102;5.776;2022-08-21T13:03:50;28.60;65.40
36990;DHT22;22898;52.102;5.776;2022-08-21T13:06:18;29.20;63.20
36990;DHT22;22898;52.102;5.776;2022-08-21T13:08:47;28.90;63.60
36990;DHT22;22898;52.102;5.776;2022-08-21T13:11:17;29.30;62.60
36990;DHT22;22898;52.102;5.776;2022-08-21T13:13:48;30.20;61.40
36990;DHT22;22898;52.102;5.776;2022-08-21T13:16:25;30.90;59.50
36990;DHT22;22898;52.102;5.776;2022-08-21T13:19:01;31.30;58.60
36990;DHT22;22898;52.102;5.776;2022-08-21T13:21:30;31.10;58.20
36990;DHT22;22898;52.102;5.776;2022-08-21T13:24:10;29.90;61.10
36990;DHT22;22898;52.102;5.776;2022-08-21T13:26:37;29.60;61.90
36990;DHT22;22898;52.102;5.776;2022-08-21T13:29:12;30.10;60.60
36990;DHT22;22898;52.102;5.776;2022-08-21T13:31:39;30.10;61.10
36990;DHT22;22898;52.102;5.776;2022-08-21T13:34:09;30.20;60.50
36990;DHT22;22898;52.102;5.776;2022-08-21T13:36:37;30.10;62.00
36990;DHT22;22898;52.102;5.776;2022-08-21T13:39:07;29.80;62.10
36990;DHT22;22898;52.102;5.776;2022-08-21T13:41:35;29.70;62.70
36990;DHT22;22898;52.102;5.776;2022-08-21T13:44:14;29.50;63.10
36990;DHT22;22898;52.102;5.776;2022-08-21T13:46:40;29.70;63.40
36990;DHT22;22898;52.102;5.776;2022-08-21T13:49:08;30.00;63.20
36990;DHT22;22898;52.102;5.776;2022-08-21T13:51:35;30.40;62.80
36990;DHT22;22898;52.102;5.776;2022-08-21T13:54:12;29.60;63.10
36990;DHT22;22898;52.102;5.776;2022-08-21T13:56:45;29.60;63.00
36990;DHT22;22898;52.102;5.776;2022-08-21T13:59:12;29.40;64.00
36990;DHT22;22898;52.102;5.776;2022-08-21T14:02:10;29.70;63.40
36990;DHT22;22898;52.102;5.776;2022-08-21T14:04:57;29.90;62.00
36990;DHT22;22898;52.102;5.776;2022-08-21T14:07:36;30.10;61.20
36990;DHT22;22898;52.102;5.776;2022-08-21T14:10:13;29.70;62.00
36990;DHT22;22898;52.102;5.776;2022-08-21T14:12:54;29.90;61.70
36990;DHT22;22898;52.102;5.776;2022-08-21T14:15:28;30.50;60.80
36990;DHT22;22898;52.102;5.776;2022-08-21T14:18:07;30.50;58.90
36990;DHT22;22898;52.102;5.776;2022-08-21T14:20:35;29.80;60.40
36990;DHT22;22898;52.102;5.776;2022-08-21T14:23:01;29.80;61.30
36990;DHT22;22898;52.102;5.776;2022-08-21T14:25:45;29.80;61.90
36990;DHT22;22898;52.102;5.776;2022-08-21T14:30:44;30.90;59.40
36990;DHT22;22898;52.102;5.776;2022-08-21T14:33:12;30.80;59.20
36990;DHT22;22898;52.102;5.776;2022-08-21T14:35:39;30.30;60.40
36990;DHT22;22898;52.102;5.776;2022-08-21T14:38:17;30.90;59.50
36990;DHT22;22898;52.102;5.776;2022-08-21T14:40:52;30.90;59.00
36990;DHT22;22898;52.102;5.776;2022-08-21T14:43:19;30.90;58.50
36990;DHT22;22898;52.102;5.776;2022-08-21T14:45:45;30.40;59.10
36990;DHT22;22898;52.102;5.776;2022-08-21T14:48:11;29.50;60.20
36990;DHT22;22898;52.102;5.776;2022-08-21T14:50:36;29.30;60.60
36990;DHT22;22898;52.102;5.776;2022-08-21T14:53:03;29.60;60.70
36990;DHT22;22898;52.102;5.776;2022-08-21T14:55:31;29.60;60.80
36990;DHT22;22898;52.102;5.776;2022-08-21T14:58:17;29.60;60.80
36990;DHT22;22898;52.102;5.776;2022-08-21T15:00:42;29.10;61.90
36990;DHT22;22898;52.102;5.776;2022-08-21T15:03:08;29.00;62.20
36990;DHT22;22898;52.102;5.776;2022-08-21T15:05:34;29.20;62.50
36990;DHT22;22898;52.102;5.776;2022-08-21T15:07:59;29.40;62.20
36990;DHT22;22898;52.102;5.776;2022-08-21T15:10:25;29.60;61.40
36990;DHT22;22898;52.102;5.776;2022-08-21T15:12:51;29.40;62.80
36990;DHT22;22898;52.102;5.776;2022-08-21T15:15:16;29.60;61.20
36990;DHT22;22898;52.102;5.776;2022-08-21T15:17:42;29.70;62.00
36990;DHT22;22898;52.102;5.776;2022-08-21T15:20:08;29.80;62.30
36990;DHT22;22898;52.102;5.776;2022-08-21T15:22:34;30.00;62.20
36990;DHT22;22898;52.102;5.776;2022-08-21T15:25:00;30.00;62.00
36990;DHT22;22898;52.102;5.776;2022-08-21T15:27:26;30.20;61.70
36990;DHT22;22898;52.102;5.776;2022-08-21T15:29:52;29.70;62.90
36990;DHT22;22898;52.102;5.776;2022-08-21T15:32:28;29.70;62.50
36990;DHT22;22898;52.102;5.776;2022-08-21T15:34:56;29.90;64.40
36990;DHT22;22898;52.102;5.776;2022-08-21T15:37:23;29.30;67.80
36990;DHT22;22898;52.102;5.776;2022-08-21T15:39:50;28.70;68.40
36990;DHT22;22898;52.102;5.776;2022-08-21T15:42:16;28.40;69.40
36990;DHT22;22898;52.102;5.776;2022-08-21T15:44:42;28.40;69.40
36990;DHT22;22898;52.102;5.776;2022-08-21T15:47:16;28.70;68.80
36990;DHT22;22898;52.102;5.776;2022-08-21T15:49:42;29.10;68.20
36990;DHT22;22898;52.102;5.776;2022-08-21T15:52:12;29.00;67.10
36990;DHT22;22898;52.102;5.776;2022-08-21T15:54:38;29.00;66.70
36990;DHT22;22898;52.102;5.776;2022-08-21T15:57:03;28.90;67.30
36990;DHT22;22898;52.102;5.776;2022-08-21T15:59:38;28.50;68.80
36990;DHT22;22898;52.102;5.776;2022-08-21T16:02:06;28.50;65.80
36990;DHT22;22898;52.102;5.776;2022-08-21T16:04:32;28.30;66.50
36990;DHT22;22898;52.102;5.776;2022-08-21T16:06:58;28.50;69.60
36990;DHT22;22898;52.102;5.776;2022-08-21T16:09:24;28.50;69.70
36990;DHT22;22898;52.102;5.776;2022-08-21T16:11:50;28.50;69.70
36990;DHT22;22898;52.102;5.776;2022-08-21T16:14:17;28.70;66.70
36990;DHT22;22898;52.102;5.776;2022-08-21T16:16:43;28.70;65.20
36990;DHT22;22898;52.102;5.776;2022-08-21T16:19:10;29.00;63.50
36990;DHT22;22898;52.102;5.776;2022-08-21T16:21:36;29.10;62.90
36990;DHT22;22898;52.102;5.776;2022-08-21T16:24:02;29.40;61.90
36990;DHT22;22898;52.102;5.776;2022-08-21T16:26:28;29.20;62.00
36990;DHT22;22898;52.102;5.776;2022-08-21T16:28:56;28.90;62.90
36990;DHT22;22898;52.102;5.776;2022-08-21T16:31:24;28.70;63.80
36990;DHT22;22898;52.102;5.776;2022-08-21T16:33:54;28.80;63.50
36990;DHT22;22898;52.102;5.776;2022-08-21T16:36:20;28.90;63.30
36990;DHT22;22898;52.102;5.776;2022-08-21T16:38:46;29.10;63.80
36990;DHT22;22898;52.102;5.776;2022-08-21T16:41:16;29.30;63.00
36990;DHT22;22898;52.102;5.776;2022-08-21T16:43:45;29.20;62.80
36990;DHT22;22898;52.102;5.776;2022-08-21T16:46:13;29.20;63.10
36990;DHT22;22898;52.102;5.776;2022-08-21T16:48:39;29.10;63.50
36990;DHT22;22898;52.102;5.776;2022-08-21T16:51:05;29.20;63.70
36990;DHT22;22898;52.102;5.776;2022-08-21T16:53:31;29.30;63.30
36990;DHT22;22898;52.102;5.776;2022-08-21T16:55:57;29.40;63.20
36990;DHT22;22898;52.102;5.776;2022-08-21T16:58:27;29.40;62.60